sensor_id;sensor_type;location;lat;lon;timestamp;temperature;humidity
57088;DHT22;42965;52.846;6.614;2022-07-25T00:00:36;21.40;99.90
57088;DHT22;42965;52.846;6.614;2022-07-25T00:03:05;21.30;99.90
57088;DHT22;42965;52.846;6.614;2022-07-25T00:05:33;21.30;99.90
57088;DHT22;42965;52.846;6.614;2022-07-25T00:08:00;21.30;99.90
57088;DHT22;42965;52.846;6.614;2022-07-25T00:10:26;21.30;99.90
57088;DHT22;42965;52.846;6.614;2022-07-25T00:12:54;21.20;99.90
57088;DHT22;42965;52.846;6.614;2022-07-25T00:15:20;21.20;99.90
57088;DHT22;42965;52.846;6.614;2022-07-25T00:17:47;21.20;99.90
57088;DHT22;42965;52.846;6.614;2022-07-25T00:20:13;21.20;99.90
57088;DHT22;42965;52.846;6.614;2022-07-25T00:22:46;21.20;99.90
57088;DHT22;42965;52.846;6.614;2022-07-25T00:25:13;21.10;99.90
57088;DHT22;42965;52.846;6.614;2022-07-25T00:27:42;21.10;99.90
57088;DHT22;42965;52.846;6.614;2022-07-25T00:30:08;21.00;99.90
57088;DHT22;42965;52.846;6.614;2022-07-25T00:32:35;21.10;99.90
57088;DHT22;42965;52.846;6.614;2022-07-25T00:35:01;21.00;99.90
57088;DHT22;42965;52.846;6.614;2022-07-25T00:37:28;20.90;99.90
57088;DHT22;42965;52.846;6.614;2022-07-25T00:39:54;20.90;99.90
57088;DHT22;42965;52.846;6.614;2022-07-25T00:42:21;21.00;99.90
57088;DHT22;42965;52.846;6.614;2022-07-25T00:44:52;20.90;99.90
57088;DHT22;42965;52.846;6.614;2022-07-25T00:47:19;20.90;99.90
57088;DHT22;42965;52.846;6.614;2022-07-25T00:49:45;20.90;99.90
57088;DHT22;42965;52.846;6.614;2022-07-25T00:52:11;20.90;99.90
57088;DHT22;42965;52.846;6.614;2022-07-25T00:54:39;20.90;99.90
57088;DHT22;42965;52.846;6.614;2022-07-25T00:57:05;20.80;99.90
57088;DHT22;42965;52.846;6.614;2022-07-25T00:59:34;20.80;99.90
57088;DHT22;42965;52.846;6.614;2022-07-25T01:02:00;20.80;99.90
57088;DHT22;42965;52.846;6.614;2022-07-25T01:04:27;20.70;99.90
57088;DHT22;42965;52.846;6.614;2022-07-25T01:06:54;20.70;99.90
57088;DHT22;42965;52.846;6.614;2022-07-25T01:09:21;20.70;99.90
57088;DHT22;42965;52.846;6.614;2022-07-25T01:11:48;20.70;99.90
57088;DHT22;42965;52.846;6.614;2022-07-25T01:14:16;20.70;99.90
57088;DHT22;42965;52.846;6.614;2022-07-25T01:16:42;20.60;99.90
57088;DHT22;42965;52.846;6.614;2022-07-25T01:19:09;20.60;99.90
57088;DHT22;42965;52.846;6.614;2022-07-25T01:21:37;20.60;99.90
57088;DHT22;42965;52.846;6.614;2022-07-25T01:24:04;20.50;99.90
57088;DHT22;42965;52.846;6.614;2022-07-25T01:26:37;20.60;99.90
57088;DHT22;42965;52.846;6.614;2022-07-25T01:29:04;20.50;99.90
57088;DHT22;42965;52.846;6.614;2022-07-25T01:31:34;20.40;99.90
57088;DHT22;42965;52.846;6.614;2022-07-25T01:34:01;20.40;99.90
57088;DHT22;42965;52.846;6.614;2022-07-25T01:36:36;20.40;99.90
57088;DHT22;42965;52.846;6.614;2022-07-25T01:39:02;20.30;99.90
57088;DHT22;42965;52.846;6.614;2022-07-25T01:41:38;20.40;99.90
57088;DHT22;42965;52.846;6.614;2022-07-25T01:44:17;20.40;99.90
57088;DHT22;42965;52.846;6.614;2022-07-25T01:46:46;20.30;99.90
57088;DHT22;42965;52.846;6.614;2022-07-25T01:49:24;20.30;99.90
57088;DHT22;42965;52.846;6.614;2022-07-25T01:51:57;20.30;99.90
57088;DHT22;42965;52.846;6.614;2022-07-25T01:54:28;20.20;99.90
57088;DHT22;42965;52.846;6.614;2022-07-25T01:56:59;20.30;99.90
57088;DHT22;42965;52.846;6.614;2022-07-25T01:59:36;20.20;99.90
57088;DHT22;42965;52.846;6.614;2022-07-25T02:02:03;20.20;99.90
57088;DHT22;42965;52.846;6.614;2022-07-25T02:04:32;20.10;99.90
57088;DHT22;42965;52.846;6.614;2022-07-25T02:06:58;20.10;99.90
57088;DHT22;42965;52.846;6.614;2022-07-25T02:09:27;20.20;99.90
57088;DHT22;42965;52.846;6.614;2022-07-25T02:11:54;20.10;99.90
57088;DHT22;42965;52.846;6.614;2022-07-25T02:14:20;20.10;99.90
57088;DHT22;42965;52.846;6.614;2022-07-25T02:16:47;20.00;99.90
57088;DHT22;42965;52.846;6.614;2022-07-25T02:19:17;20.10;99.90
57088;DHT22;42965;52.846;6.614;2022-07-25T02:21:47;20.00;99.90
57088;DHT22;42965;52.846;6.614;2022-07-25T02:24:13;20.00;99.90
57088;DHT22;42965;52.846;6.614;2022-07-25T02:26:40;19.90;99.90
57088;DHT22;42965;52.846;6.614;2022-07-25T02:29:10;19.90;99.90
57088;DHT22;42965;52.846;6.614;2022-07-25T02:34:20;19.90;99.90
57088;DHT22;42965;52.846;6.614;2022-07-25T02:36:46;19.80;99.90
57088;DHT22;42965;52.846;6.614;2022-07-25T02:39:21;19.80;99.90
57088;DHT22;42965;52.846;6.614;2022-07-25T02:41:48;19.80;99.90
57088;DHT22;42965;52.846;6.614;2022-07-25T02:44:18;19.70;99.90
57088;DHT22;42965;52.846;6.614;2022-07-25T02:46:48;19.70;99.90
57088;DHT22;42965;52.846;6.614;2022-07-25T02:49:15;19.70;99.90
57088;DHT22;42965;52.846;6.614;2022-07-25T02:51:51;19.80;99.90
57088;DHT22;42965;52.846;6.614;2022-07-25T02:54:22;19.80;99.90
57088;DHT22;42965;52.846;6.614;2022-07-25T02:56:53;19.80;99.90
57088;DHT22;42965;52.846;6.614;2022-07-25T02:59:19;19.70;99.90
57088;DHT22;42965;52.846;6.614;2022-07-25T03:01:46;19.70;99.90
57088;DHT22;42965;52.846;6.614;2022-07-25T03:04:20;19.70;99.90
57088;DHT22;42965;52.846;6.614;2022-07-25T03:06:46;19.70;99.90
57088;DHT22;42965;52.846;6.614;2022-07-25T03:09:19;19.60;99.90
57088;DHT22;42965;52.846;6.614;2022-07-25T03:11:48;19.60;99.90
57088;DHT22;42965;52.846;6.614;2022-07-25T03:14:21;19.60;99.90
57088;DHT22;42965;52.846;6.614;2022-07-25T03:16:47;19.60;99.90
57088;DHT22;42965;52.846;6.614;2022-07-25T03:19:17;19.60;99.90
57088;DHT22;42965;52.846;6.614;2022-07-25T03:21:50;19.50;99.90
57088;DHT22;42965;52.846;6.614;2022-07-25T03:24:24;19.50;99.90
57088;DHT22;42965;52.846;6.614;2022-07-25T03:27:00;19.50;99.90
57088;DHT22;42965;52.846;6.614;2022-07-25T03:29:29;19.50;99.90
57088;DHT22;42965;52.846;6.614;2022-07-25T03:32:06;19.40;99.90
57088;DHT22;42965;52.846;6.614;2022-07-25T03:34:55;19.40;99.90
57088;DHT22;42965;52.846;6.614;2022-07-25T03:37:24;19.30;99.90
57088;DHT22;42965;52.846;6.614;2022-07-25T03:39:50;19.40;99.90
57088;DHT22;42965;52.846;6.614;2022-07-25T03:42:24;19.40;99.90
57088;DHT22;42965;52.846;6.614;2022-07-25T03:44:51;19.40;99.90
57088;DHT22;42965;52.846;6.614;2022-07-25T03:47:17;19.30;99.90
57088;DHT22;42965;52.846;6.614;2022-07-25T03:49:45;19.30;99.90
57088;DHT22;42965;52.846;6.614;2022-07-25T03:52:22;19.40;99.90
57088;DHT22;42965;52.846;6.614;2022-07-25T03:54:51;19.50;99.90
57088;DHT22;42965;52.846;6.614;2022-07-25T03:57:28;19.40;99.90
57088;DHT22;42965;52.846;6.614;2022-07-25T03:59:57;19.40;99.90
57088;DHT22;42965;52.846;6.614;2022-07-25T04:02:33;19.40;99.90
57088;DHT22;42965;52.846;6.614;2022-07-25T04:05:06;19.40;99.90
57088;DHT22;42965;52.846;6.614;2022-07-25T04:07:54;19.40;99.90
57088;DHT22;42965;52.846;6.614;2022-07-25T04:10:20;19.50;99.90
57088;DHT22;42965;52.846;6.614;2022-07-25T04:12:50;19.50;99.90
57088;DHT22;42965;52.846;6.614;2022-07-25T04:15:19;19.40;99.90
57088;DHT22;42965;52.846;6.614;2022-07-25T04:18:06;19.40;99.90
57088;DHT22;42965;52.846;6.614;2022-07-25T04:20:32;19.40;99.90
57088;DHT22;42965;52.846;6.614;2022-07-25T04:22:59;19.50;99.90
57088;DHT22;42965;52.846;6.614;2022-07-25T04:25:25;19.40;99.90
57088;DHT22;42965;52.846;6.614;2022-07-25T04:27:51;19.50;99.90
57088;DHT22;42965;52.846;6.614;2022-07-25T04:30:18;19.60;99.90
57088;DHT22;42965;52.846;6.614;2022-07-25T04:32:48;19.60;99.90
57088;DHT22;42965;52.846;6.614;2022-07-25T04:35:15;19.70;99.90
57088;DHT22;42965;52.846;6.614;2022-07-25T04:37:46;19.70;99.90
57088;DHT22;42965;52.846;6.614;2022-07-25T04:40:16;19.80;99.90
57088;DHT22;42965;52.846;6.614;2022-07-25T04:42:50;19.90;99.90
57088;DHT22;42965;52.846;6.614;2022-07-25T04:45:16;20.00;99.90
57088;DHT22;42965;52.846;6.614;2022-07-25T04:48:03;20.10;99.90
57088;DHT22;42965;52.846;6.614;2022-07-25T04:50:30;20.20;99.90
57088;DHT22;42965;52.846;6.614;2022-07-25T04:53:00;20.30;99.90
57088;DHT22;42965;52.846;6.614;2022-07-25T04:55:26;20.30;99.90
57088;DHT22;42965;52.846;6.614;2022-07-25T04:57:53;20.40;99.90
57088;DHT22;42965;52.846;6.614;2022-07-25T05:00:20;20.40;99.90
57088;DHT22;42965;52.846;6.614;2022-07-25T05:02:48;20.50;99.90
57088;DHT22;42965;52.846;6.614;2022-07-25T05:05:15;20.50;99.90
57088;DHT22;42965;52.846;6.614;2022-07-25T05:07:45;20.60;99.90
57088;DHT22;42965;52.846;6.614;2022-07-25T05:10:12;20.70;99.90
57088;DHT22;42965;52.846;6.614;2022-07-25T05:12:38;20.80;99.90
57088;DHT22;42965;52.846;6.614;2022-07-25T05:15:05;21.10;99.90
57088;DHT22;42965;52.846;6.614;2022-07-25T05:17:31;21.20;99.90
57088;DHT22;42965;52.846;6.614;2022-07-25T05:19:57;21.40;99.90
57088;DHT22;42965;52.846;6.614;2022-07-25T05:22:24;21.50;99.90
57088;DHT22;42965;52.846;6.614;2022-07-25T05:24:50;21.60;99.90
57088;DHT22;42965;52.846;6.614;2022-07-25T05:27:16;21.70;99.90
57088;DHT22;42965;52.846;6.614;2022-07-25T05:29:43;21.80;99.90
57088;DHT22;42965;52.846;6.614;2022-07-25T05:32:12;21.90;99.90
57088;DHT22;42965;52.846;6.614;2022-07-25T05:34:38;21.90;99.90
57088;DHT22;42965;52.846;6.614;2022-07-25T05:37:20;22.00;99.90
57088;DHT22;42965;52.846;6.614;2022-07-25T05:39:47;22.00;99.90
57088;DHT22;42965;52.846;6.614;2022-07-25T05:42:30;22.10;99.90
57088;DHT22;42965;52.846;6.614;2022-07-25T05:45:19;22.20;99.90
57088;DHT22;42965;52.846;6.614;2022-07-25T05:47:47;22.40;99.90
57088;DHT22;42965;52.846;6.614;2022-07-25T05:50:13;22.40;99.90
57088;DHT22;42965;52.846;6.614;2022-07-25T05:52:41;22.40;99.90
57088;DHT22;42965;52.846;6.614;2022-07-25T05:55:07;22.40;99.90
57088;DHT22;42965;52.846;6.614;2022-07-25T05:57:34;22.40;99.90
57088;DHT22;42965;52.846;6.614;2022-07-25T06:00:09;22.40;99.90
57088;DHT22;42965;52.846;6.614;2022-07-25T06:02:35;22.50;99.90
57088;DHT22;42965;52.846;6.614;2022-07-25T06:05:02;22.60;99.90
57088;DHT22;42965;52.846;6.614;2022-07-25T06:07:28;22.80;99.90
57088;DHT22;42965;52.846;6.614;2022-07-25T06:09:55;22.80;99.90
57088;DHT22;42965;52.846;6.614;2022-07-25T06:12:21;22.90;99.90
57088;DHT22;42965;52.846;6.614;2022-07-25T06:14:49;22.90;99.90
57088;DHT22;42965;52.846;6.614;2022-07-25T06:20:19;23.10;99.90
57088;DHT22;42965;52.846;6.614;2022-07-25T06:22:45;23.20;99.90
57088;DHT22;42965;52.846;6.614;2022-07-25T06:25:11;23.30;99.90
57088;DHT22;42965;52.846;6.614;2022-07-25T06:27:38;23.50;99.90
57088;DHT22;42965;52.846;6.614;2022-07-25T06:30:05;23.80;99.90
57088;DHT22;42965;52.846;6.614;2022-07-25T06:32:32;23.90;99.90
57088;DHT22;42965;52.846;6.614;2022-07-25T06:34:59;24.20;99.90
57088;DHT22;42965;52.846;6.614;2022-07-25T06:37:25;24.40;99.90
57088;DHT22;42965;52.846;6.614;2022-07-25T06:39:54;24.60;99.90
57088;DHT22;42965;52.846;6.614;2022-07-25T06:42:21;24.60;99.90
57088;DHT22;42965;52.846;6.614;2022-07-25T06:44:49;24.80;99.90
57088;DHT22;42965;52.846;6.614;2022-07-25T06:47:20;25.10;99.90
57088;DHT22;42965;52.846;6.614;2022-07-25T06:49:46;25.10;99.90
57088;DHT22;42965;52.846;6.614;2022-07-25T06:52:13;25.20;99.90
57088;DHT22;42965;52.846;6.614;2022-07-25T06:54:40;25.30;99.90
57088;DHT22;42965;52.846;6.614;2022-07-25T06:57:15;25.50;99.90
57088;DHT22;42965;52.846;6.614;2022-07-25T06:59:43;25.60;99.90
57088;DHT22;42965;52.846;6.614;2022-07-25T07:02:13;25.70;99.90
57088;DHT22;42965;52.846;6.614;2022-07-25T07:04:45;25.90;99.90
57088;DHT22;42965;52.846;6.614;2022-07-25T07:07:12;26.10;99.90
57088;DHT22;42965;52.846;6.614;2022-07-25T07:09:39;26.30;99.90
57088;DHT22;42965;52.846;6.614;2022-07-25T07:12:05;26.40;99.90
57088;DHT22;42965;52.846;6.614;2022-07-25T07:14:32;26.30;99.90
57088;DHT22;42965;52.846;6.614;2022-07-25T07:16:58;26.10;99.90
57088;DHT22;42965;52.846;6.614;2022-07-25T07:19:24;26.30;99.90
57088;DHT22;42965;52.846;6.614;2022-07-25T07:21:51;26.50;99.90
57088;DHT22;42965;52.846;6.614;2022-07-25T07:24:17;26.90;99.90
57088;DHT22;42965;52.846;6.614;2022-07-25T07:26:44;27.10;99.90
57088;DHT22;42965;52.846;6.614;2022-07-25T07:29:13;27.30;99.90
57088;DHT22;42965;52.846;6.614;2022-07-25T07:31:40;27.60;99.90
57088;DHT22;42965;52.846;6.614;2022-07-25T07:34:06;27.60;99.90
57088;DHT22;42965;52.846;6.614;2022-07-25T07:36:33;27.30;99.90
57088;DHT22;42965;52.846;6.614;2022-07-25T07:39:03;27.10;99.90
57088;DHT22;42965;52.846;6.614;2022-07-25T07:41:32;26.90;99.90
57088;DHT22;42965;52.846;6.614;2022-07-25T07:43:59;26.80;99.90
57088;DHT22;42965;52.846;6.614;2022-07-25T07:46:25;26.70;99.90
57088;DHT22;42965;52.846;6.614;2022-07-25T07:48:51;26.50;99.90
57088;DHT22;42965;52.846;6.614;2022-07-25T07:51:18;26.30;99.90
57088;DHT22;42965;52.846;6.614;2022-07-25T07:53:45;26.20;99.90
57088;DHT22;42965;52.846;6.614;2022-07-25T07:56:30;26.20;99.90
57088;DHT22;42965;52.846;6.614;2022-07-25T07:58:56;26.00;99.90
57088;DHT22;42965;52.846;6.614;2022-07-25T08:01:23;26.30;99.90
57088;DHT22;42965;52.846;6.614;2022-07-25T08:03:50;26.50;99.90
57088;DHT22;42965;52.846;6.614;2022-07-25T08:06:17;26.80;99.90
57088;DHT22;42965;52.846;6.614;2022-07-25T08:08:43;26.90;99.90
57088;DHT22;42965;52.846;6.614;2022-07-25T08:11:10;26.80;99.90
57088;DHT22;42965;52.846;6.614;2022-07-25T08:13:37;26.80;99.90
57088;DHT22;42965;52.846;6.614;2022-07-25T08:16:03;26.80;99.90
57088;DHT22;42965;52.846;6.614;2022-07-25T08:18:31;26.60;99.90
57088;DHT22;42965;52.846;6.614;2022-07-25T08:20:59;26.40;99.90
57088;DHT22;42965;52.846;6.614;2022-07-25T08:23:27;26.20;99.90
57088;DHT22;42965;52.846;6.614;2022-07-25T08:25:54;26.00;99.90
57088;DHT22;42965;52.846;6.614;2022-07-25T08:28:23;26.00;99.90
57088;DHT22;42965;52.846;6.614;2022-07-25T08:30:52;26.40;99.90
57088;DHT22;42965;52.846;6.614;2022-07-25T08:33:19;26.70;99.90
57088;DHT22;42965;52.846;6.614;2022-07-25T08:35:50;26.70;99.90
57088;DHT22;42965;52.846;6.614;2022-07-25T08:38:19;26.60;99.90
57088;DHT22;42965;52.846;6.614;2022-07-25T08:40:46;26.50;99.90
57088;DHT22;42965;52.846;6.614;2022-07-25T08:43:15;26.40;99.90
57088;DHT22;42965;52.846;6.614;2022-07-25T08:46:04;26.30;99.90
57088;DHT22;42965;52.846;6.614;2022-07-25T08:48:31;26.10;99.90
57088;DHT22;42965;52.846;6.614;2022-07-25T08:50:58;26.00;99.90
57088;DHT22;42965;52.846;6.614;2022-07-25T08:53:25;25.90;99.90
57088;DHT22;42965;52.846;6.614;2022-07-25T08:55:52;25.70;99.90
57088;DHT22;42965;52.846;6.614;2022-07-25T08:58:18;25.30;99.90
57088;DHT22;42965;52.846;6.614;2022-07-25T09:00:45;25.10;99.90
57088;DHT22;42965;52.846;6.614;2022-07-25T09:03:14;25.00;99.90
57088;DHT22;42965;52.846;6.614;2022-07-25T09:05:40;24.90;99.90
57088;DHT22;42965;52.846;6.614;2022-07-25T09:08:10;25.00;99.90
57088;DHT22;42965;52.846;6.614;2022-07-25T09:10:37;24.90;99.90
57088;DHT22;42965;52.846;6.614;2022-07-25T09:13:10;25.00;99.90
57088;DHT22;42965;52.846;6.614;2022-07-25T09:15:43;25.10;99.90
57088;DHT22;42965;52.846;6.614;2022-07-25T09:18:25;25.00;99.90
57088;DHT22;42965;52.846;6.614;2022-07-25T09:20:53;25.10;99.90
57088;DHT22;42965;52.846;6.614;2022-07-25T09:23:27;25.10;99.90
57088;DHT22;42965;52.846;6.614;2022-07-25T09:26:05;25.20;99.90
57088;DHT22;42965;52.846;6.614;2022-07-25T09:28:38;25.20;99.90
57088;DHT22;42965;52.846;6.614;2022-07-25T09:31:05;25.30;99.90
57088;DHT22;42965;52.846;6.614;2022-07-25T09:33:43;25.50;99.90
57088;DHT22;42965;52.846;6.614;2022-07-25T09:36:11;25.70;99.90
57088;DHT22;42965;52.846;6.614;2022-07-25T09:38:37;25.70;99.90
57088;DHT22;42965;52.846;6.614;2022-07-25T09:41:04;25.80;99.90
57088;DHT22;42965;52.846;6.614;2022-07-25T09:43:39;26.00;99.90
57088;DHT22;42965;52.846;6.614;2022-07-25T09:46:09;26.20;99.90
57088;DHT22;42965;52.846;6.614;2022-07-25T09:48:39;26.50;99.90
57088;DHT22;42965;52.846;6.614;2022-07-25T09:51:09;26.50;99.90
57088;DHT22;42965;52.846;6.614;2022-07-25T09:53:35;27.00;99.90
57088;DHT22;42965;52.846;6.614;2022-07-25T09:56:01;27.20;99.90
57088;DHT22;42965;52.846;6.614;2022-07-25T09:58:28;27.20;99.90
57088;DHT22;42965;52.846;6.614;2022-07-25T10:01:04;26.90;99.90
57088;DHT22;42965;52.846;6.614;2022-07-25T10:06:27;26.50;99.90
57088;DHT22;42965;52.846;6.614;2022-07-25T10:09:12;26.20;99.90
57088;DHT22;42965;52.846;6.614;2022-07-25T10:14:24;25.60;99.90
57088;DHT22;42965;52.846;6.614;2022-07-25T10:17:00;25.80;99.90
57088;DHT22;42965;52.846;6.614;2022-07-25T10:19:43;26.30;99.90
57088;DHT22;42965;52.846;6.614;2022-07-25T10:22:10;26.80;99.90
57088;DHT22;42965;52.846;6.614;2022-07-25T10:24:38;26.80;99.90
57088;DHT22;42965;52.846;6.614;2022-07-25T10:27:11;27.30;99.90
57088;DHT22;42965;52.846;6.614;2022-07-25T10:29:39;27.50;99.90
57088;DHT22;42965;52.846;6.614;2022-07-25T10:32:10;28.10;99.90
57088;DHT22;42965;52.846;6.614;2022-07-25T10:34:58;28.00;99.90
57088;DHT22;42965;52.846;6.614;2022-07-25T10:37:28;27.90;99.90
57088;DHT22;42965;52.846;6.614;2022-07-25T10:40:00;27.50;99.90
57088;DHT22;42965;52.846;6.614;2022-07-25T10:42:44;27.10;99.90
57088;DHT22;42965;52.846;6.614;2022-07-25T10:45:16;26.60;99.90
57088;DHT22;42965;52.846;6.614;2022-07-25T10:47:52;26.40;99.90
57088;DHT22;42965;52.846;6.614;2022-07-25T10:50:29;26.10;99.90
57088;DHT22;42965;52.846;6.614;2022-07-25T10:52:59;25.70;99.90
57088;DHT22;42965;52.846;6.614;2022-07-25T10:55:27;25.60;99.90
57088;DHT22;42965;52.846;6.614;2022-07-25T10:58:04;25.70;99.90
57088;DHT22;42965;52.846;6.614;2022-07-25T11:00:42;25.90;99.90
57088;DHT22;42965;52.846;6.614;2022-07-25T11:03:13;25.80;99.90
57088;DHT22;42965;52.846;6.614;2022-07-25T11:05:48;25.50;99.90
57088;DHT22;42965;52.846;6.614;2022-07-25T11:08:36;25.30;99.90
57088;DHT22;42965;52.846;6.614;2022-07-25T11:11:09;25.20;99.90
57088;DHT22;42965;52.846;6.614;2022-07-25T11:13:40;25.00;99.90
57088;DHT22;42965;52.846;6.614;2022-07-25T11:16:08;25.00;99.90
57088;DHT22;42965;52.846;6.614;2022-07-25T11:18:36;24.80;99.90
57088;DHT22;42965;52.846;6.614;2022-07-25T11:21:06;24.60;99.90
57088;DHT22;42965;52.846;6.614;2022-07-25T11:23:36;24.60;99.90
57088;DHT22;42965;52.846;6.614;2022-07-25T11:26:06;25.00;99.90
57088;DHT22;42965;52.846;6.614;2022-07-25T11:28:41;25.70;99.90
57088;DHT22;42965;52.846;6.614;2022-07-25T11:31:08;26.30;99.90
57088;DHT22;42965;52.846;6.614;2022-07-25T11:33:36;26.50;99.90
57088;DHT22;42965;52.846;6.614;2022-07-25T11:36:03;26.30;99.90
57088;DHT22;42965;52.846;6.614;2022-07-25T11:38:30;26.10;99.90
57088;DHT22;42965;52.846;6.614;2022-07-25T11:40:56;26.00;99.90
57088;DHT22;42965;52.846;6.614;2022-07-25T11:43:23;25.90;99.90
57088;DHT22;42965;52.846;6.614;2022-07-25T11:46:09;26.20;99.90
57088;DHT22;42965;52.846;6.614;2022-07-25T11:48:37;26.20;99.90
57088;DHT22;42965;52.846;6.614;2022-07-25T11:51:09;26.10;99.90
57088;DHT22;42965;52.846;6.614;2022-07-25T11:53:44;25.90;99.90
57088;DHT22;42965;52.846;6.614;2022-07-25T11:56:18;25.90;99.90
57088;DHT22;42965;52.846;6.614;2022-07-25T11:58:58;26.20;99.90
57088;DHT22;42965;52.846;6.614;2022-07-25T12:01:36;26.30;99.90
57088;DHT22;42965;52.846;6.614;2022-07-25T12:04:18;26.30;99.90
57088;DHT22;42965;52.846;6.614;2022-07-25T12:06:47;26.20;99.90
57088;DHT22;42965;52.846;6.614;2022-07-25T12:09:19;26.20;99.90
57088;DHT22;42965;52.846;6.614;2022-07-25T12:11:47;26.40;99.90
57088;DHT22;42965;52.846;6.614;2022-07-25T12:14:14;26.30;99.90
57088;DHT22;42965;52.846;6.614;2022-07-25T12:16:40;26.10;99.90
57088;DHT22;42965;52.846;6.614;2022-07-25T12:19:18;25.40;99.90
57088;DHT22;42965;52.846;6.614;2022-07-25T12:21:45;25.30;99.90
57088;DHT22;42965;52.846;6.614;2022-07-25T12:24:11;25.20;99.90
57088;DHT22;42965;52.846;6.614;2022-07-25T12:26:37;25.30;99.90
57088;DHT22;42965;52.846;6.614;2022-07-25T12:29:03;25.00;99.90
57088;DHT22;42965;52.846;6.614;2022-07-25T12:31:30;25.10;99.90
57088;DHT22;42965;52.846;6.614;2022-07-25T12:33:56;25.30;99.90
57088;DHT22;42965;52.846;6.614;2022-07-25T12:36:26;25.50;99.90
57088;DHT22;42965;52.846;6.614;2022-07-25T12:38:52;25.50;99.90
57088;DHT22;42965;52.846;6.614;2022-07-25T12:41:18;25.70;99.90
57088;DHT22;42965;52.846;6.614;2022-07-25T12:43:47;25.70;99.90
57088;DHT22;42965;52.846;6.614;2022-07-25T12:46:15;25.90;99.90
57088;DHT22;42965;52.846;6.614;2022-07-25T12:48:41;25.50;99.90
57088;DHT22;42965;52.846;6.614;2022-07-25T12:51:07;25.40;99.90
57088;DHT22;42965;52.846;6.614;2022-07-25T12:53:33;25.20;99.90
57088;DHT22;42965;52.846;6.614;2022-07-25T12:55:59;25.10;99.90
57088;DHT22;42965;52.846;6.614;2022-07-25T12:58:25;24.70;99.90
57088;DHT22;42965;52.846;6.614;2022-07-25T13:00:52;24.70;99.90
57088;DHT22;42965;52.846;6.614;2022-07-25T13:03:18;24.60;99.90
57088;DHT22;42965;52.846;6.614;2022-07-25T13:05:45;24.60;99.90
57088;DHT22;42965;52.846;6.614;2022-07-25T13:08:11;24.80;99.90
57088;DHT22;42965;52.846;6.614;2022-07-25T13:10:37;25.00;99.90
57088;DHT22;42965;52.846;6.614;2022-07-25T13:13:03;25.60;99.90
57088;DHT22;42965;52.846;6.614;2022-07-25T13:15:29;26.00;99.90
57088;DHT22;42965;52.846;6.614;2022-07-25T13:17:56;26.00;99.90
57088;DHT22;42965;52.846;6.614;2022-07-25T13:20:22;25.80;99.90
57088;DHT22;42965;52.846;6.614;2022-07-25T13:22:48;25.50;99.90
57088;DHT22;42965;52.846;6.614;2022-07-25T13:25:17;25.60;99.90
57088;DHT22;42965;52.846;6.614;2022-07-25T13:27:43;25.20;99.90
57088;DHT22;42965;52.846;6.614;2022-07-25T13:30:13;24.80;99.90
57088;DHT22;42965;52.846;6.614;2022-07-25T13:32:40;24.60;99.90
57088;DHT22;42965;52.846;6.614;2022-07-25T13:35:07;24.00;99.90
57088;DHT22;42965;52.846;6.614;2022-07-25T13:37:33;23.70;99.90
57088;DHT22;42965;52.846;6.614;2022-07-25T13:39:59;23.40;99.90
57088;DHT22;42965;52.846;6.614;2022-07-25T13:42:25;23.20;99.90
57088;DHT22;42965;52.846;6.614;2022-07-25T13:44:51;23.00;99.90
57088;DHT22;42965;52.846;6.614;2022-07-25T13:47:17;22.80;99.90
57088;DHT22;42965;52.846;6.614;2022-07-25T13:49:44;22.60;99.90
57088;DHT22;42965;52.846;6.614;2022-07-25T13:52:10;22.70;99.90
57088;DHT22;42965;52.846;6.614;2022-07-25T13:54:36;22.60;99.90
57088;DHT22;42965;52.846;6.614;2022-07-25T13:57:03;22.60;99.90
57088;DHT22;42965;52.846;6.614;2022-07-25T13:59:29;22.60;99.90
57088;DHT22;42965;52.846;6.614;2022-07-25T14:01:55;22.70;99.90
57088;DHT22;42965;52.846;6.614;2022-07-25T14:04:21;22.90;99.90
57088;DHT22;42965;52.846;6.614;2022-07-25T14:06:48;23.40;99.90
57088;DHT22;42965;52.846;6.614;2022-07-25T14:09:20;24.30;99.90
57088;DHT22;42965;52.846;6.614;2022-07-25T14:11:47;25.00;99.90
57088;DHT22;42965;52.846;6.614;2022-07-25T14:14:13;25.30;99.90
57088;DHT22;42965;52.846;6.614;2022-07-25T14:16:40;25.50;99.90
57088;DHT22;42965;52.846;6.614;2022-07-25T14:19:07;25.50;99.90
57088;DHT22;42965;52.846;6.614;2022-07-25T14:21:33;25.10;99.90
57088;DHT22;42965;52.846;6.614;2022-07-25T14:24:00;25.00;99.90
57088;DHT22;42965;52.846;6.614;2022-07-25T14:26:27;24.90;99.90
57088;DHT22;42965;52.846;6.614;2022-07-25T14:28:55;24.80;99.90
57088;DHT22;42965;52.846;6.614;2022-07-25T14:31:22;24.30;99.90
57088;DHT22;42965;52.846;6.614;2022-07-25T14:33:48;24.20;99.90
57088;DHT22;42965;52.846;6.614;2022-07-25T14:36:14;23.70;99.90
57088;DHT22;42965;52.846;6.614;2022-07-25T14:38:41;23.50;99.90
57088;DHT22;42965;52.846;6.614;2022-07-25T14:41:07;23.30;99.90
57088;DHT22;42965;52.846;6.614;2022-07-25T14:43:33;23.40;99.90
57088;DHT22;42965;52.846;6.614;2022-07-25T14:45:59;23.80;99.90
57088;DHT22;42965;52.846;6.614;2022-07-25T14:48:25;24.50;99.90
57088;DHT22;42965;52.846;6.614;2022-07-25T14:50:51;25.40;99.90
57088;DHT22;42965;52.846;6.614;2022-07-25T14:53:18;25.60;99.90
57088;DHT22;42965;52.846;6.614;2022-07-25T14:55:44;25.90;99.90
57088;DHT22;42965;52.846;6.614;2022-07-25T14:58:11;25.50;99.90
57088;DHT22;42965;52.846;6.614;2022-07-25T15:00:38;25.30;99.90
57088;DHT22;42965;52.846;6.614;2022-07-25T15:03:07;25.10;99.90
57088;DHT22;42965;52.846;6.614;2022-07-25T15:05:34;25.10;99.90
57088;DHT22;42965;52.846;6.614;2022-07-25T15:08:01;24.90;99.90
57088;DHT22;42965;52.846;6.614;2022-07-25T15:10:27;24.80;99.90
57088;DHT22;42965;52.846;6.614;2022-07-25T15:12:53;25.00;99.90
57088;DHT22;42965;52.846;6.614;2022-07-25T15:15:19;25.20;99.90
57088;DHT22;42965;52.846;6.614;2022-07-25T15:17:45;25.00;99.90
57088;DHT22;42965;52.846;6.614;2022-07-25T15:20:11;24.90;99.90
57088;DHT22;42965;52.846;6.614;2022-07-25T15:22:37;25.10;99.90
57088;DHT22;42965;52.846;6.614;2022-07-25T15:25:04;25.10;99.90
57088;DHT22;42965;52.846;6.614;2022-07-25T15:27:30;25.00;99.90
57088;DHT22;42965;52.846;6.614;2022-07-25T15:29:57;25.10;99.90
57088;DHT22;42965;52.846;6.614;2022-07-25T15:32:23;24.70;99.90
57088;DHT22;42965;52.846;6.614;2022-07-25T15:34:49;24.30;99.90
57088;DHT22;42965;52.846;6.614;2022-07-25T15:37:15;24.30;99.90
57088;DHT22;42965;52.846;6.614;2022-07-25T15:39:41;24.10;99.90
57088;DHT22;42965;52.846;6.614;2022-07-25T15:42:09;23.90;99.90
57088;DHT22;42965;52.846;6.614;2022-07-25T15:44:35;24.00;99.90
57088;DHT22;42965;52.846;6.614;2022-07-25T15:47:01;24.10;99.90
57088;DHT22;42965;52.846;6.614;2022-07-25T15:49:27;24.30;99.90
57088;DHT22;42965;52.846;6.614;2022-07-25T15:51:53;24.10;99.90